KESN/ESN METAR and TAF weather

Enter ICAO airport designator
Station Type Date Time Source
KESN METAR 2023/12/09 00:45 UTC NOAA

KESN 090045Z 19009KT 10SM CLR 08/05 A3017


Station Type Date Time Source
KESN Decoded METAR 2023/12/09 00:45 UTC NOAA

Easton / Newman Field, MD, United States (KESN) 38-48N 076-04W
Dec 08, 2023 - 07:45 PM EST / 2023.12.09 0045 UTC
Wind: from the S (190 degrees) at 10 MPH (9 KT):0
Visibility: 10 mile(s):0
Sky conditions: clear
Temperature: 46 F (8 C)
Dew Point: 41 F (5 C)
Relative Humidity: 81%
Pressure (altimeter): 30.17 in. Hg (1021 hPa)
ob: KESN 090045Z 19009KT 10SM CLR 08/05 A3017
cycle: 1

Station Type Date Time Source
KESN TAF UTC NOAA

Error!

Example: see airport list